Time;durP1;ratioP1;P1;durP2;ratioP2;P2;SDS_P1;SDS_P2;PMS_P1;PMS_P2;Temp;Humidity;BMP_temperature;BMP_pressure;BME280_temperature;BME280_humidity;BME280_pressure;Samples;Min_cycle;Max_cycle;Signal;HPM_P1;HPM_P2
2023/01/04 00:01:21;;;;;;;5.50;3.70;;;6.80;99.90;;;;;;939670;149;27347;-76
2023/01/04 00:03:47;;;;;;;4.60;4.07;;;6.80;99.90;;;;;;921948;154;27390;-76
2023/01/04 00:06:14;;;;;;;4.87;4.00;;;6.70;99.90;;;;;;938827;149;27409;-77
2023/01/04 00:08:40;;;;;;;6.00;3.60;;;6.70;99.90;;;;;;929671;153;27387;-76
2023/01/04 00:11:07;;;;;;;3.77;3.40;;;6.70;99.90;;;;;;937692;152;27930;-76
2023/01/04 00:13:33;;;;;;;4.97;4.40;;;6.60;99.90;;;;;;938008;152;27453;-75
2023/01/04 00:16:00;;;;;;;4.07;3.50;;;6.60;99.90;;;;;;930472;153;27769;-76
2023/01/04 00:18:27;;;;;;;4.53;4.10;;;6.60;99.90;;;;;;937189;152;27369;-76
2023/01/04 00:20:53;;;;;;;5.07;4.23;;;6.60;99.90;;;;;;930722;153;27806;-76
2023/01/04 00:23:20;;;;;;;5.73;4.10;;;6.60;99.90;;;;;;936050;152;27286;-76
2023/01/04 00:25:46;;;;;;;4.77;3.57;;;6.50;99.90;;;;;;938691;149;27410;-79
2023/01/04 00:28:13;;;;;;;6.23;3.97;;;6.50;99.90;;;;;;938557;151;27451;-78
2023/01/04 00:30:40;;;;;;;4.60;4.00;;;6.50;99.90;;;;;;937287;152;27369;-77
2023/01/04 00:33:06;;;;;;;4.07;3.53;;;6.50;99.90;;;;;;937100;152;27354;-77
2023/01/04 00:35:33;;;;;;;4.23;3.83;;;6.50;99.90;;;;;;936853;152;27335;-77
2023/01/04 00:37:59;;;;;;;5.43;3.93;;;6.50;99.90;;;;;;923764;152;27345;-77
2023/01/04 00:40:26;;;;;;;3.47;3.10;;;6.50;99.90;;;;;;938005;152;27394;-77
2023/01/04 00:42:52;;;;;;;5.10;3.50;;;6.50;99.90;;;;;;928253;154;27378;-77
2023/01/04 00:45:19;;;;;;;3.33;3.03;;;6.50;99.90;;;;;;936625;152;27835;-77
2023/01/04 00:47:46;;;;;;;4.40;3.43;;;6.50;99.90;;;;;;924340;152;27337;-77
2023/01/04 00:50:12;;;;;;;4.30;3.40;;;6.50;99.90;;;;;;939937;149;27377;-78
2023/01/04 00:52:39;;;;;;;7.20;3.13;;;6.50;99.90;;;;;;921335;154;27500;-77
2023/01/04 00:55:05;;;;;;;5.23;3.60;;;6.50;99.90;;;;;;937947;152;27422;-77
2023/01/04 00:57:32;;;;;;;4.23;3.23;;;6.50;99.90;;;;;;922590;154;27500;-77
2023/01/04 00:59:59;;;;;;;3.67;3.00;;;6.50;99.90;;;;;;933836;152;27264;-77
2023/01/04 01:02:25;;;;;;;3.20;2.87;;;6.50;99.90;;;;;;933823;151;27410;-77
2023/01/04 01:04:52;;;;;;;4.00;3.27;;;6.50;99.90;;;;;;934567;150;27353;-77
2023/01/04 01:07:18;;;;;;;2.60;2.40;;;6.50;99.90;;;;;;934029;152;27375;-78
2023/01/04 01:09:45;;;;;;;3.80;2.80;;;6.50;99.90;;;;;;928383;151;27320;-77
2023/01/04 01:12:11;;;;;;;3.17;2.80;;;6.50;99.90;;;;;;919975;155;27848;-78
2023/01/04 01:14:38;;;;;;;2.73;2.50;;;6.60;99.90;;;;;;930311;151;27373;-77
2023/01/04 01:17:05;;;;;;;4.47;2.77;;;6.60;99.90;;;;;;916386;155;27331;-76
2023/01/04 01:19:31;;;;;;;4.00;2.70;;;6.70;99.90;;;;;;934922;150;27345;-77
2023/01/04 01:21:58;;;;;;;2.60;2.40;;;6.80;99.90;;;;;;919892;152;27465;-78
2023/01/04 01:24:24;;;;;;;3.13;2.50;;;6.80;99.90;;;;;;928009;152;27880;-77
2023/01/04 01:26:51;;;;;;;2.83;2.50;;;6.90;99.90;;;;;;923073;155;27445;-77
2023/01/04 01:29:18;;;;;;;3.20;2.17;;;7.00;99.90;;;;;;935230;152;27309;-77
2023/01/04 01:31:44;;;;;;;5.27;2.90;;;7.10;99.90;;;;;;929031;152;27278;-77
2023/01/04 01:34:11;;;;;;;3.53;2.60;;;7.20;99.90;;;;;;933790;152;27318;-78
2023/01/04 01:36:37;;;;;;;3.03;2.57;;;7.20;99.90;;;;;;922527;154;27402;-78
2023/01/04 01:39:04;;;;;;;3.07;2.20;;;7.30;99.90;;;;;;925407;154;27356;-77
2023/01/04 01:41:31;;;;;;;3.50;2.73;;;7.30;99.90;;;;;;927702;154;27355;-78
2023/01/04 01:43:57;;;;;;;5.37;2.70;;;7.40;99.90;;;;;;926870;151;27663;-77
2023/01/04 01:46:26;;;;;;;2.77;2.57;;;7.40;99.90;;;;;;926915;154;27424;-77
2023/01/04 01:48:53;;;;;;;2.77;2.30;;;7.40;99.90;;;;;;927810;154;27390;-77
2023/01/04 01:51:19;;;;;;;4.63;2.63;;;7.40;99.90;;;;;;927073;154;27384;-77
2023/01/04 01:53:46;;;;;;;3.70;2.50;;;7.40;99.90;;;;;;923244;152;27354;-77
2023/01/04 01:56:13;;;;;;;2.67;2.47;;;7.40;99.90;;;;;;927517;154;27512;-78
2023/01/04 01:58:39;;;;;;;2.60;2.40;;;7.40;99.90;;;;;;924787;152;27386;-77
2023/01/04 02:01:06;;;;;;;2.50;2.20;;;7.40;99.90;;;;;;927006;151;27369;-77
2023/01/04 02:03:32;;;;;;;2.63;2.33;;;7.30;99.90;;;;;;934227;152;27359;-77
2023/01/04 02:05:59;;;;;;;4.33;2.53;;;7.30;99.90;;;;;;933976;152;27366;-78
2023/01/04 02:08:26;;;;;;;2.27;2.03;;;7.30;99.90;;;;;;923508;153;27432;-76
2023/01/04 02:10:52;;;;;;;4.97;2.80;;;7.30;99.90;;;;;;918577;152;27413;-76
2023/01/04 02:13:19;;;;;;;2.50;2.20;;;7.30;99.90;;;;;;916752;155;27356;-77
2023/01/04 02:15:48;;;;;;;4.37;2.40;;;7.30;99.90;;;;;;934259;152;27426;-78
2023/01/04 02:18:15;;;;;;;2.80;2.60;;;7.20;99.90;;;;;;935572;152;27385;-77
2023/01/04 02:20:44;;;;;;;3.73;2.67;;;7.20;99.90;;;;;;933846;152;27401;-77
2023/01/04 02:23:25;;;;;;;2.97;2.73;;;7.20;99.90;;;;;;920591;154;27367;-77
2023/01/04 02:25:58;;;;;;;3.07;2.80;;;7.20;99.90;;;;;;917933;155;27910;-77
2023/01/04 02:28:27;;;;;;;3.53;2.87;;;7.20;99.90;;;;;;916541;154;27348;-77
2023/01/04 02:30:59;;;;;;;3.10;2.80;;;7.20;99.90;;;;;;928373;152;27433;-77
2023/01/04 02:33:38;;;;;;;3.20;2.87;;;7.30;99.90;;;;;;905987;155;27364;-77
2023/01/04 02:36:10;;;;;;;3.53;3.23;;;7.30;99.90;;;;;;906854;157;27477;-77
2023/01/04 02:39:14;;;;;;;3.60;3.13;;;7.30;99.90;;;;;;904528;155;27294;-77
2023/01/04 02:41:52;;;;;;;3.00;2.80;;;7.40;99.90;;;;;;905714;157;27378;-77
2023/01/04 02:47:09;;;;;;;4.57;3.77;;;7.50;99.90;;;;;;935523;152;27518;-78
2023/01/04 02:52:20;;;;;;;4.37;3.97;;;7.60;99.90;;;;;;935025;152;27353;-77
2023/01/04 02:54:47;;;;;;;4.03;3.63;;;7.60;99.90;;;;;;923383;152;27304;-77
2023/01/04 02:57:32;;;;;;;4.10;3.70;;;7.70;99.90;;;;;;927226;153;27413;-77
2023/01/04 03:00:29;;;;;;;4.73;3.90;;;7.70;99.90;;;;;;927749;153;27916;-77
2023/01/04 03:06:17;;;;;;;5.00;3.73;;;7.90;99.90;;;;;;925598;151;27386;-76
2023/01/04 03:08:56;;;;;;;4.40;4.00;;;7.90;99.90;;;;;;925870;154;27405;-77
2023/01/04 03:14:10;;;;;;;5.53;4.23;;;8.00;99.90;;;;;;924817;153;27472;-75
2023/01/04 03:16:36;;;;;;;5.87;4.13;;;8.10;99.90;;;;;;926552;154;27928;-75
2023/01/04 03:19:08;;;;;;;5.37;4.30;;;8.10;99.90;;;;;;933956;152;27364;-75
2023/01/04 03:21:30;;;;;;;5.43;4.10;;;8.20;99.90;;;;;;915473;154;27556;-75
2023/01/04 03:37:48;;;;;;;4.80;4.20;;;8.50;99.90;;;;;;930191;152;27346;-74
2023/01/04 03:49:11;;;;;;;4.57;4.03;;;8.70;99.90;;;;;;911510;152;28051;-74
2023/01/04 03:51:37;;;;;;;5.07;3.93;;;8.70;99.90;;;;;;922462;155;27316;-74
2023/01/04 03:54:04;;;;;;;4.80;3.47;;;8.70;99.90;;;;;;917528;154;27356;-79
2023/01/04 03:56:31;;;;;;;2.83;2.63;;;8.80;99.90;;;;;;917395;154;27465;-80
2023/01/04 03:58:57;;;;;;;4.83;3.20;;;8.80;99.90;;;;;;917583;155;27534;-79
2023/01/04 04:01:24;;;;;;;4.40;3.33;;;8.90;99.90;;;;;;918900;155;27326;-79
2023/01/04 04:09:20;;;;;;;3.47;3.03;;;9.00;99.90;;;;;;928615;151;27577;-80
2023/01/04 04:11:46;;;;;;;4.17;2.93;;;9.10;99.90;;;;;;929005;153;27338;-79
2023/01/04 04:14:13;;;;;;;3.57;3.10;;;9.20;99.90;;;;;;917492;152;27379;-79
2023/01/04 04:16:39;;;;;;;3.17;2.93;;;9.30;99.90;;;;;;921536;155;27365;-79
2023/01/04 04:19:06;;;;;;;3.60;2.77;;;9.30;99.90;;;;;;934451;151;27435;-78
2023/01/04 04:21:33;;;;;;;4.50;2.80;;;9.40;99.90;;;;;;920790;153;27435;-79
2023/01/04 04:23:59;;;;;;;3.87;2.87;;;9.50;99.90;;;;;;930365;152;27410;-79
2023/01/04 04:26:26;;;;;;;4.03;2.67;;;9.50;99.90;;;;;;925464;153;27427;-79
2023/01/04 04:28:52;;;;;;;4.20;2.97;;;9.60;99.90;;;;;;929219;153;27418;-79
2023/01/04 04:31:19;;;;;;;2.80;2.60;;;9.60;99.90;;;;;;927526;152;27378;-79
2023/01/04 04:33:46;;;;;;;3.37;2.40;;;9.70;99.90;;;;;;927388;152;27378;-79
2023/01/04 04:36:12;;;;;;;2.73;2.30;;;9.70;99.90;;;;;;927719;153;27853;-80
2023/01/04 04:38:39;;;;;;;2.80;2.60;;;9.80;99.90;;;;;;927690;153;27411;-79
2023/01/04 04:43:50;;;;;;;4.00;2.20;;;9.90;99.90;;;;;;930200;152;27955;-80
2023/01/04 04:46:17;;;;;;;3.60;2.40;;;9.90;99.90;;;;;;920026;155;27423;-80
2023/01/04 04:48:43;;;;;;;3.97;2.07;;;9.90;99.90;;;;;;917183;155;27416;-77
2023/01/04 04:51:10;;;;;;;2.37;2.10;;;10.00;99.90;;;;;;935118;152;27334;-79
2023/01/04 04:53:36;;;;;;;2.77;2.07;;;10.00;99.90;;;;;;919330;152;27476;-78
2023/01/04 04:56:03;;;;;;;3.40;2.27;;;10.00;99.90;;;;;;918127;155;27298;-79
2023/01/04 04:58:30;;;;;;;2.40;2.20;;;10.00;99.90;;;;;;934206;152;27724;-79
2023/01/04 05:00:56;;;;;;;2.33;2.13;;;10.10;99.90;;;;;;938125;149;27336;-79
2023/01/04 05:03:23;;;;;;;2.63;2.33;;;10.10;99.90;;;;;;938538;152;27460;-78
2023/01/04 05:05:49;;;;;;;2.10;1.77;;;10.10;99.70;;;;;;937033;152;27869;-80
2023/01/04 05:08:16;;;;;;;6.10;2.10;;;10.10;99.60;;;;;;923520;152;27335;-79
2023/01/04 05:10:43;;;;;;;4.60;2.40;;;10.10;99.60;;;;;;923598;154;27244;-79
2023/01/04 05:13:11;;;;;;;2.47;2.10;;;10.10;99.60;;;;;;937705;152;27318;-78
2023/01/04 05:15:36;;;;;;;2.33;1.93;;;10.10;99.50;;;;;;938294;152;27450;-78
2023/01/04 05:18:02;;;;;;;2.77;1.93;;;10.10;99.50;;;;;;930819;153;27386;-79
2023/01/04 05:20:29;;;;;;;2.10;1.90;;;10.10;99.50;;;;;;938069;152;27251;-79
2023/01/04 05:22:55;;;;;;;2.70;1.70;;;10.10;99.50;;;;;;940184;152;27333;-78
2023/01/04 05:25:22;;;;;;;2.20;2.00;;;10.10;99.40;;;;;;935582;152;27418;-78
2023/01/04 05:27:49;;;;;;;2.20;1.97;;;10.20;99.40;;;;;;923096;154;27396;-79
2023/01/04 05:33:00;;;;;;;2.00;1.73;;;10.10;99.40;;;;;;938886;152;27324;-79
2023/01/04 05:35:26;;;;;;;3.40;1.90;;;10.10;99.40;;;;;;922626;154;27397;-79
2023/01/04 05:37:53;;;;;;;3.17;1.80;;;10.10;99.40;;;;;;938061;151;27378;-79
2023/01/04 05:40:20;;;;;;;2.10;1.90;;;10.10;99.40;;;;;;939964;151;27402;-79
2023/01/04 05:42:46;;;;;;;2.60;1.77;;;10.10;99.40;;;;;;925273;152;27366;-78
2023/01/04 05:45:13;;;;;;;2.63;1.93;;;10.10;99.50;;;;;;924050;152;27354;-79
2023/01/04 05:47:39;;;;;;;2.47;1.93;;;10.10;99.60;;;;;;939211;152;27307;-78
2023/01/04 05:50:06;;;;;;;2.00;1.80;;;10.20;99.70;;;;;;915370;155;27499;-78
2023/01/04 05:52:33;;;;;;;2.93;1.90;;;10.10;99.60;;;;;;922233;154;27387;-79
2023/01/04 05:54:59;;;;;;;2.00;1.80;;;10.10;99.70;;;;;;937968;152;27425;-79
2023/01/04 05:57:26;;;;;;;2.50;1.97;;;10.20;99.70;;;;;;924442;153;27310;-79
2023/01/04 05:59:52;;;;;;;2.07;1.87;;;10.20;99.70;;;;;;939058;151;27314;-77
2023/01/04 06:02:19;;;;;;;1.83;1.50;;;10.20;99.70;;;;;;937753;152;27982;-79
2023/01/04 06:04:45;;;;;;;2.43;1.77;;;10.20;99.80;;;;;;922919;152;27302;-79
2023/01/04 06:07:12;;;;;;;2.63;1.60;;;10.20;99.80;;;;;;937202;152;27299;-78
2023/01/04 06:09:39;;;;;;;1.70;1.60;;;10.20;99.80;;;;;;938487;152;27422;-78
2023/01/04 06:12:05;;;;;;;2.10;1.90;;;10.20;99.80;;;;;;924832;154;27374;-77
2023/01/04 06:14:32;;;;;;;3.20;1.77;;;10.20;99.80;;;;;;927713;152;27835;-78
2023/01/04 06:16:58;;;;;;;2.20;1.50;;;10.20;99.70;;;;;;923836;154;27284;-79
2023/01/04 06:19:25;;;;;;;1.80;1.70;;;10.30;99.70;;;;;;939014;152;27331;-79
2023/01/04 06:21:52;;;;;;;2.97;1.70;;;10.30;99.80;;;;;;924537;152;27368;-77
2023/01/04 06:24:18;;;;;;;2.47;1.70;;;10.30;99.70;;;;;;928175;154;27393;-79
2023/01/04 06:26:45;;;;;;;4.93;1.90;;;10.30;99.60;;;;;;937738;152;27303;-79
2023/01/04 06:29:11;;;;;;;2.57;2.00;;;10.30;99.50;;;;;;931597;152;27433;-79
2023/01/04 06:31:38;;;;;;;2.83;2.03;;;10.30;99.10;;;;;;936819;152;27322;-79
2023/01/04 06:34:04;;;;;;;2.37;2.10;;;10.30;99.40;;;;;;924396;152;27298;-77
2023/01/04 06:36:31;;;;;;;2.90;2.10;;;10.30;99.30;;;;;;921748;153;27486;-79
2023/01/04 06:38:58;;;;;;;2.43;2.23;;;10.30;99.60;;;;;;923213;154;27420;-79
2023/01/04 06:41:24;;;;;;;3.83;2.40;;;10.30;99.20;;;;;;926392;153;27329;-79
2023/01/04 06:43:51;;;;;;;2.40;2.20;;;10.30;99.10;;;;;;920787;154;27461;-79
2023/01/04 06:46:17;;;;;;;3.37;2.53;;;10.30;99.10;;;;;;937812;151;27381;-80
2023/01/04 06:48:44;;;;;;;3.33;2.80;;;10.30;99.00;;;;;;927854;154;27325;-78
2023/01/04 06:51:11;;;;;;;3.07;2.60;;;10.30;98.90;;;;;;927543;154;27341;-79
2023/01/04 06:53:37;;;;;;;3.50;3.10;;;10.30;98.80;;;;;;927913;153;27335;-78
2023/01/04 06:56:04;;;;;;;3.60;2.70;;;10.40;98.80;;;;;;939174;152;27467;-78
2023/01/04 06:58:30;;;;;;;3.83;2.80;;;10.40;98.70;;;;;;940810;152;27462;-79
2023/01/04 07:00:57;;;;;;;3.73;2.80;;;10.40;98.60;;;;;;939084;151;27394;-79
2023/01/04 07:03:24;;;;;;;4.50;3.00;;;10.40;98.60;;;;;;943885;148;27351;-79
2023/01/04 07:05:51;;;;;;;3.20;2.60;;;10.40;98.50;;;;;;930074;151;27415;-78
2023/01/04 07:08:17;;;;;;;2.73;2.53;;;10.40;98.30;;;;;;926669;154;27495;-80
2023/01/04 07:10:43;;;;;;;3.17;2.87;;;10.40;98.20;;;;;;940724;151;27372;-80
2023/01/04 07:13:10;;;;;;;4.53;3.00;;;10.50;98.00;;;;;;942314;151;27336;-79
2023/01/04 07:15:37;;;;;;;3.20;2.90;;;10.40;97.90;;;;;;921579;152;27418;-78
2023/01/04 07:18:03;;;;;;;3.23;2.93;;;10.40;98.00;;;;;;925169;154;27489;-77
2023/01/04 07:20:30;;;;;;;3.67;2.90;;;10.50;97.80;;;;;;940544;151;27442;-78
2023/01/04 07:22:56;;;;;;;3.93;3.40;;;10.50;97.90;;;;;;928765;151;28465;-78
2023/01/04 07:25:23;;;;;;;4.07;3.30;;;10.50;98.00;;;;;;944493;151;27321;-78
2023/01/04 07:27:49;;;;;;;3.83;3.20;;;10.50;98.00;;;;;;944035;151;27325;-78
2023/01/04 07:30:16;;;;;;;6.33;2.97;;;10.50;98.00;;;;;;930923;151;27421;-78
2023/01/04 07:32:43;;;;;;;3.07;2.80;;;10.50;98.20;;;;;;943865;151;27448;-78
2023/01/04 07:35:09;;;;;;;3.40;2.83;;;10.60;98.20;;;;;;943860;151;27340;-78
2023/01/04 07:37:36;;;;;;;3.93;2.50;;;10.60;98.10;;;;;;942948;151;27331;-79
2023/01/04 07:40:02;;;;;;;3.97;2.97;;;10.60;98.00;;;;;;940015;151;27775;-78
2023/01/04 07:42:29;;;;;;;4.23;2.93;;;10.60;98.00;;;;;;940159;151;27451;-78
2023/01/04 07:44:56;;;;;;;3.83;3.20;;;10.70;97.90;;;;;;928589;154;27335;-78
2023/01/04 07:47:22;;;;;;;3.37;2.70;;;10.70;97.60;;;;;;945056;151;27437;-78
2023/01/04 07:49:49;;;;;;;2.90;2.53;;;10.70;97.60;;;;;;937551;151;27369;-78
2023/01/04 07:52:15;;;;;;;4.17;3.13;;;10.70;97.60;;;;;;943312;151;27505;-78
2023/01/04 07:54:42;;;;;;;4.33;3.17;;;10.70;97.50;;;;;;925358;154;27387;-78
2023/01/04 07:57:08;;;;;;;3.20;2.87;;;10.70;97.50;;;;;;926457;154;27334;-78
2023/01/04 07:59:35;;;;;;;4.90;3.20;;;10.70;97.40;;;;;;941584;151;27309;-78
2023/01/04 08:02:02;;;;;;;2.70;2.50;;;10.80;97.30;;;;;;937629;151;27401;-78
2023/01/04 08:04:28;;;;;;;3.10;2.80;;;10.80;97.40;;;;;;928486;152;27888;-79
2023/01/04 08:06:55;;;;;;;3.43;3.13;;;10.80;97.30;;;;;;928135;153;27721;-78
2023/01/04 08:09:21;;;;;;;3.17;2.87;;;10.80;97.20;;;;;;923020;154;27418;-78
2023/01/04 08:11:48;;;;;;;5.33;3.10;;;10.80;97.30;;;;;;921848;154;27413;-78
2023/01/04 08:14:15;;;;;;;3.70;2.60;;;10.90;97.30;;;;;;917154;156;27451;-78
2023/01/04 08:16:41;;;;;;;3.07;2.77;;;10.90;97.30;;;;;;907288;154;27391;-78
2023/01/04 08:19:08;;;;;;;3.67;2.90;;;10.90;97.20;;;;;;928697;152;27406;-78
2023/01/04 08:21:34;;;;;;;3.23;2.70;;;10.90;97.30;;;;;;927883;152;27438;-78
2023/01/04 08:24:01;;;;;;;3.47;2.97;;;10.90;97.30;;;;;;914230;155;27439;-78
2023/01/04 08:26:27;;;;;;;3.83;3.30;;;11.00;97.40;;;;;;906898;157;27363;-78
2023/01/04 08:28:55;;;;;;;2.73;2.53;;;11.00;97.40;;;;;;927880;153;27811;-78
2023/01/04 08:31:21;;;;;;;2.93;2.63;;;11.00;97.40;;;;;;928613;153;27449;-78
2023/01/04 08:33:47;;;;;;;2.70;2.50;;;11.00;97.20;;;;;;929984;151;27306;-78
2023/01/04 08:36:18;;;;;;;2.53;2.33;;;11.10;97.30;;;;;;928215;153;27331;-77
2023/01/04 08:38:43;;;;;;;2.70;2.40;;;11.10;97.30;;;;;;927498;152;27398;-78
2023/01/04 08:41:10;;;;;;;2.70;2.50;;;11.10;97.30;;;;;;929073;151;27380;-78
2023/01/04 08:43:37;;;;;;;3.07;2.30;;;11.10;97.20;;;;;;929494;153;27731;-77
2023/01/04 08:46:03;;;;;;;2.27;1.97;;;11.20;97.30;;;;;;915817;154;27387;-78
2023/01/04 08:48:30;;;;;;;2.30;2.10;;;11.20;97.40;;;;;;912287;154;27481;-79
2023/01/04 08:51:02;;;;;;;2.77;2.53;;;11.20;97.30;;;;;;914100;154;27463;-80
2023/01/04 08:53:28;;;;;;;2.20;2.03;;;11.20;97.20;;;;;;914291;156;27852;-79
2023/01/04 08:55:55;;;;;;;2.33;2.00;;;11.30;97.30;;;;;;921742;153;27352;-80
2023/01/04 08:58:22;;;;;;;2.30;1.67;;;11.30;97.20;;;;;;927753;153;27471;-80
2023/01/04 09:00:48;;;;;;;3.17;2.50;;;11.30;97.20;;;;;;922776;154;27515;-79
2023/01/04 09:03:15;;;;;;;2.20;2.00;;;11.30;97.20;;;;;;917017;153;27318;-80
2023/01/04 09:05:41;;;;;;;2.20;2.00;;;11.40;97.30;;;;;;920843;153;27858;-79
2023/01/04 09:08:08;;;;;;;2.50;2.27;;;11.40;97.20;;;;;;922444;152;27446;-78
2023/01/04 09:10:35;;;;;;;2.13;1.87;;;11.40;97.20;;;;;;919010;155;27420;-80
2023/01/04 09:13:01;;;;;;;1.57;1.47;;;11.50;97.20;;;;;;919848;152;27386;-79
2023/01/04 09:15:28;;;;;;;1.40;1.30;;;11.50;97.20;;;;;;933161;152;27367;-79
2023/01/04 09:17:54;;;;;;;2.83;2.60;;;11.50;97.10;;;;;;924084;154;27296;-78
2023/01/04 09:20:21;;;;;;;1.50;1.40;;;11.60;97.10;;;;;;927540;153;27408;-80
2023/01/04 09:22:47;;;;;;;1.37;1.27;;;11.60;97.00;;;;;;928633;153;27359;-79
2023/01/04 09:25:14;;;;;;;2.37;1.40;;;11.60;97.10;;;;;;932403;152;27400;-80
2023/01/04 09:27:41;;;;;;;1.80;1.27;;;11.60;96.90;;;;;;934172;152;27391;-79
2023/01/04 09:30:07;;;;;;;1.50;1.40;;;11.60;97.10;;;;;;933195;152;27399;-78
2023/01/04 09:32:34;;;;;;;1.57;1.43;;;11.70;97.10;;;;;;923389;155;27403;-80
2023/01/04 09:35:01;;;;;;;1.60;1.50;;;11.70;97.10;;;;;;936045;150;27293;-80
2023/01/04 09:37:27;;;;;;;1.60;1.50;;;11.70;97.10;;;;;;934877;152;27267;-79
2023/01/04 09:39:54;;;;;;;2.03;1.63;;;11.80;97.40;;;;;;921009;155;27320;-81
2023/01/04 09:42:26;;;;;;;1.93;1.63;;;11.80;97.10;;;;;;920696;153;27331;-82
2023/01/04 09:44:52;;;;;;;1.90;1.47;;;11.80;97.00;;;;;;926601;154;27500;-80
2023/01/04 09:47:25;;;;;;;3.40;2.27;;;11.90;97.00;;;;;;935118;152;27430;-79
2023/01/04 09:49:54;;;;;;;2.27;1.40;;;11.90;97.00;;;;;;934482;152;27317;-78
2023/01/04 09:52:33;;;;;;;1.47;1.37;;;11.90;97.00;;;;;;910052;152;27366;-79
2023/01/04 09:54:59;;;;;;;2.13;1.50;;;11.90;97.00;;;;;;934163;152;28069;-80
2023/01/04 09:57:29;;;;;;;2.73;1.93;;;11.90;97.00;;;;;;936095;152;27400;-79
2023/01/04 09:59:55;;;;;;;1.98;1.87;;;12.00;97.10;;;;;;933132;152;27451;-79
2023/01/04 10:02:40;;;;;;;2.00;1.80;;;12.00;97.00;;;;;;923568;153;27362;-80
2023/01/04 10:05:07;;;;;;;3.30;2.40;;;12.00;97.00;;;;;;925901;153;27408;-80
2023/01/04 10:07:33;;;;;;;1.57;1.47;;;12.00;96.90;;;;;;923878;154;27454;-80
2023/01/04 10:10:00;;;;;;;1.80;1.70;;;12.00;96.80;;;;;;924193;152;27400;-79
2023/01/04 10:12:41;;;;;;;1.67;1.57;;;12.00;96.80;;;;;;934978;152;27395;-79
2023/01/04 10:15:20;;;;;;;1.70;1.60;;;12.00;96.80;;;;;;919000;152;29238;-79
2023/01/04 10:18:04;;;;;;;2.30;1.60;;;12.10;96.30;;;;;;936045;152;27367;-79
2023/01/04 10:20:32;;;;;;;2.47;1.60;;;12.10;96.60;;;;;;916165;155;27874;-81
2023/01/04 10:23:00;;;;;;;2.13;1.90;;;12.10;96.40;;;;;;910002;154;27435;-80
2023/01/04 10:25:39;;;;;;;1.90;1.43;;;12.10;96.40;;;;;;907763;156;27337;-82
2023/01/04 10:28:14;;;;;;;1.83;1.73;;;12.10;96.30;;;;;;907040;157;27384;-79
2023/01/04 10:30:53;;;;;;;1.60;1.50;;;12.10;96.40;;;;;;907457;154;27434;-80
2023/01/04 10:33:31;;;;;;;1.70;1.37;;;12.10;96.40;;;;;;907867;157;27495;-80
2023/01/04 10:35:58;;;;;;;1.70;1.60;;;12.10;96.40;;;;;;907504;157;27366;-79
2023/01/04 10:38:27;;;;;;;2.00;1.70;;;12.10;96.50;;;;;;933434;152;27326;-80
2023/01/04 10:40:53;;;;;;;1.90;1.40;;;12.10;96.40;;;;;;924058;155;27374;-79
2023/01/04 10:43:47;;;;;;;1.77;1.67;;;12.10;96.40;;;;;;913508;153;27488;-79
2023/01/04 10:46:23;;;;;;;1.10;1.10;;;12.10;96.40;;;;;;926601;154;27370;-81
2023/01/04 10:48:58;;;;;;;1.93;1.73;;;12.20;96.50;;;;;;919717;154;27404;-80
2023/01/04 10:51:33;;;;;;;2.13;1.70;;;12.20;96.50;;;;;;925118;154;27467;-80
2023/01/04 10:53:59;;;;;;;1.50;1.40;;;12.20;96.60;;;;;;936144;152;27329;-79
2023/01/04 10:56:44;;;;;;;1.70;1.53;;;12.20;96.60;;;;;;933723;152;27364;-79
2023/01/04 10:59:11;;;;;;;1.47;1.37;;;12.20;96.60;;;;;;934008;152;27448;-80
2023/01/04 11:01:38;;;;;;;2.60;1.50;;;12.30;96.70;;;;;;929286;152;27387;-78
2023/01/04 11:04:07;;;;;;;1.63;1.53;;;12.30;96.60;;;;;;932836;150;27364;-80
2023/01/04 11:06:34;;;;;;;1.80;1.70;;;12.30;96.60;;;;;;932693;150;27337;-80
2023/01/04 11:09:03;;;;;;;2.47;1.40;;;12.30;96.50;;;;;;916547;155;27329;-80
2023/01/04 11:11:30;;;;;;;3.00;1.50;;;12.30;96.30;;;;;;933917;152;27268;-81
2023/01/04 11:13:58;;;;;;;1.43;1.33;;;12.30;96.10;;;;;;933247;152;27366;-78
2023/01/04 11:16:23;;;;;;;1.70;1.60;;;12.40;96.10;;;;;;929703;151;27446;-77
2023/01/04 11:18:50;;;;;;;1.83;1.73;;;12.30;96.00;;;;;;915469;155;27392;-79
2023/01/04 11:21:16;;;;;;;2.03;1.70;;;12.40;96.00;;;;;;916827;155;27354;-79
2023/01/04 11:23:43;;;;;;;1.70;1.60;;;12.40;96.10;;;;;;931539;152;27338;-79
2023/01/04 11:26:12;;;;;;;3.75;1.80;;;12.40;96.10;;;;;;933519;150;27351;-77
2023/01/04 11:28:50;;;;;;;1.60;1.50;;;12.40;96.10;;;;;;932473;152;27443;-78
2023/01/04 11:31:44;;;;;;;1.77;1.60;;;12.40;96.20;;;;;;933895;151;27325;-80
2023/01/04 11:34:11;;;;;;;2.23;1.40;;;12.40;96.20;;;;;;917844;155;27345;-79
2023/01/04 11:36:41;;;;;;;1.50;1.40;;;12.40;96.00;;;;;;933959;150;27383;-80
2023/01/04 11:39:19;;;;;;;1.80;1.35;;;12.40;96.00;;;;;;929548;152;27341;-79
2023/01/04 11:42:03;;;;;;;1.75;1.65;;;12.40;96.10;;;;;;917381;155;27376;-80
2023/01/04 11:44:28;;;;;;;1.77;1.67;;;12.40;96.40;;;;;;922573;154;27526;-79
2023/01/04 11:47:06;;;;;;;2.13;1.80;;;12.40;96.20;;;;;;918419;154;27440;-79
2023/01/04 11:49:35;;;;;;;2.37;1.42;;;12.50;96.30;;;;;;929695;150;27387;-80
2023/01/04 11:52:02;;;;;;;1.63;1.53;;;12.50;96.20;;;;;;934664;152;27416;-79
2023/01/04 11:54:29;;;;;;;3.87;2.63;;;12.50;96.40;;;;;;917887;152;27526;-79
2023/01/04 11:57:02;;;;;;;1.82;1.60;;;12.50;96.40;;;;;;933164;152;27348;-79
2023/01/04 11:59:28;;;;;;;2.17;1.82;;;12.50;96.50;;;;;;922154;152;27394;-80
2023/01/04 12:02:18;;;;;;;3.83;1.87;;;12.60;96.50;;;;;;907263;157;27532;-80
2023/01/04 12:04:45;;;;;;;1.67;1.57;;;12.60;96.50;;;;;;915627;155;27344;-80
2023/01/04 12:07:31;;;;;;;1.43;1.33;;;12.60;96.50;;;;;;933909;152;27400;-79
2023/01/04 12:09:58;;;;;;;1.30;1.27;;;12.70;96.40;;;;;;898885;155;27432;-80
2023/01/04 12:12:27;;;;;;;1.60;1.50;;;12.70;96.40;;;;;;897858;155;27398;-80
2023/01/04 12:14:54;;;;;;;1.75;1.47;;;12.80;96.30;;;;;;891637;157;27428;-80
2023/01/04 12:17:48;;;;;;;2.53;1.50;;;12.80;96.30;;;;;;915926;154;28324;-79
2023/01/04 12:20:14;;;;;;;2.70;1.33;;;12.80;96.20;;;;;;900149;155;27412;-80
2023/01/04 12:22:41;;;;;;;2.10;1.73;;;12.80;96.20;;;;;;904155;155;27431;-80
2023/01/04 12:25:23;;;;;;;2.33;1.70;;;12.90;96.30;;;;;;906737;154;27373;-79
2023/01/04 12:27:49;;;;;;;2.33;2.13;;;12.90;96.30;;;;;;907141;155;28010;-80
2023/01/04 12:30:38;;;;;;;1.90;1.60;;;12.90;96.00;;;;;;907211;155;27443;-80
2023/01/04 12:33:29;;;;;;;1.43;1.40;;;12.90;96.10;;;;;;908106;155;27423;-82
2023/01/04 12:36:06;;;;;;;1.80;1.70;;;13.00;95.80;;;;;;909602;155;27898;-79
2023/01/04 12:38:56;;;;;;;2.07;1.80;;;13.00;95.90;;;;;;906685;155;27412;-78
2023/01/04 12:41:35;;;;;;;1.67;1.50;;;13.00;95.90;;;;;;909969;155;27440;-79
2023/01/04 12:44:01;;;;;;;1.50;1.40;;;13.00;95.90;;;;;;910064;155;27357;-80
2023/01/04 12:49:28;;;;;;;4.43;2.00;;;13.10;96.00;;;;;;908999;155;27487;-79
2023/01/04 12:52:10;;;;;;;1.60;1.50;;;13.10;96.00;;;;;;911321;152;28003;-78
2023/01/04 12:54:51;;;;;;;1.73;1.63;;;13.10;95.90;;;;;;909096;155;27837;-80
2023/01/04 12:57:18;;;;;;;3.10;2.00;;;13.10;95.80;;;;;;909483;155;27363;-81
2023/01/04 13:00:11;;;;;;;2.00;1.47;;;13.10;95.70;;;;;;908337;155;27343;-79
2023/01/04 13:02:46;;;;;;;1.80;1.50;;;13.10;95.60;;;;;;909723;155;27446;-80
2023/01/04 13:05:16;;;;;;;2.13;1.57;;;13.10;95.70;;;;;;905987;155;28314;-81
2023/01/04 13:07:51;;;;;;;1.17;1.07;;;13.10;95.90;;;;;;908481;155;27417;-81
2023/01/04 13:10:21;;;;;;;1.57;1.47;;;13.10;96.20;;;;;;923318;152;27583;-80
2023/01/04 13:13:02;;;;;;;2.63;1.40;;;13.10;96.30;;;;;;931129;150;27416;-80
2023/01/04 13:15:44;;;;;;;2.10;1.60;;;13.10;96.50;;;;;;926960;152;27482;-81
2023/01/04 13:18:33;;;;;;;2.03;1.90;;;13.00;96.60;;;;;;926550;152;27501;-79
2023/01/04 13:20:58;;;;;;;1.67;1.40;;;12.90;96.60;;;;;;925850;151;27359;-80
2023/01/04 13:23:25;;;;;;;1.73;1.63;;;12.80;96.90;;;;;;924641;151;27357;-80
2023/01/04 13:25:52;;;;;;;5.40;1.63;;;12.80;97.20;;;;;;924302;153;27510;-81
2023/01/04 13:28:18;;;;;;;2.17;1.97;;;12.70;97.50;;;;;;921185;153;27347;-80
2023/01/04 13:30:45;;;;;;;3.30;1.87;;;12.70;97.80;;;;;;923716;153;27341;-80
2023/01/04 13:33:17;;;;;;;1.80;1.70;;;12.70;98.00;;;;;;924926;151;27384;-81
2023/01/04 13:35:44;;;;;;;1.73;1.60;;;12.60;98.20;;;;;;923159;153;27448;-80
2023/01/04 13:38:10;;;;;;;1.40;1.30;;;12.60;98.50;;;;;;927489;153;27371;-81
2023/01/04 13:40:37;;;;;;;3.83;1.80;;;12.60;98.70;;;;;;899775;155;27449;-81
2023/01/04 13:43:16;;;;;;;1.50;1.40;;;12.50;99.00;;;;;;902324;155;27405;-80
2023/01/04 13:45:49;;;;;;;1.80;1.37;;;12.50;99.00;;;;;;902332;158;27352;-79
2023/01/04 13:48:15;;;;;;;2.63;1.97;;;12.50;99.10;;;;;;902902;155;27394;-80